Tropical Cyclones
[Index]
Main Index Home Page Stock Weather Photos Extreme Storms Discussion Storm News and Storm Chasing Reports Tropical Cyclones / Hurricanes / Typhoons Weather Data and Links Wild Fires / Bushfires Weather Observation Techniques Weather Picture Catalogue Tornado Pictures and Reports Stock Video Footage and DVDs for sale
Season 2013-2014 Tropical Cyclone CHRISTINE Track Map
Season 2013-2014 Summaries: [BoM-AU] [JTWC-AU] [JTWC-SIO] [JTWC-SPAC] [JTWC-SH]
<<- Previous TC | JTWC 2013-2014 Season | Next TC ->>

click for intensity scale information  Lat/long Grid: Show Hide

 Date Labels: Show Hide

Joint Typhoon Warning Centre Cyclone Data

Name: CHRISTINE

27 Dec 2013 06:00 UTC to 01 Jan 2014 12:00 UTC

    date/time    lat    long     hPa   cat  kts
2013-12-27 06   14.1   121.1    1007         20          
2013-12-27 12   14.2   121.1    1007         20          
2013-12-27 18   14.4   121.2    1007         20          
2013-12-28 00   14.8   121.6    1004         25          
2013-12-28 06   15.3   121.2    1000         30          
2013-12-28 12   15.8   120.9    1000         30          
2013-12-28 18   16.3   120.5     989    1    45          
2013-12-29 00   16.7   120.1     982    2    55          
2013-12-29 00   16.7   120.1     982    2    55          
2013-12-29 06   17.2   119.8     978    2    60          
2013-12-29 06   17.2   119.8     978    2    60          
2013-12-29 12   17.8   119.4     974    2    65          
2013-12-29 12   17.8   119.4     974    2    65          
2013-12-29 18   18.4   119.2     974    2    65          
2013-12-29 18   18.4   119.2     974    2    65          
2013-12-30 00   18.8   118.7     963    3    80          
2013-12-30 00   18.8   118.7     963    3    80          
2013-12-30 00   18.8   118.7     963    3    80          
2013-12-30 06   19.5   118.2     959    3    85          
2013-12-30 06   19.5   118.2     959    3    85          
2013-12-30 06   19.5   118.2     959    3    85          
2013-12-30 12   20.4   117.7     948    4   100          
2013-12-30 12   20.4   117.7     948    4   100          
2013-12-30 12   20.4   117.7     948    4   100          
2013-12-30 18   21.1   117.0     959    3    85          
2013-12-30 18   21.1   117.0     959    3    85          
2013-12-30 18   21.1   117.0     959    3    85          
2013-12-31 00   22.1   117.0     967    3    75          
2013-12-31 00   22.1   117.0     967    3    75          
2013-12-31 00   22.1   117.0     967    3    75          
2013-12-31 06   23.7   117.4     970    2    70          
2013-12-31 06   23.7   117.4     970    2    70          
2013-12-31 06   23.7   117.4     970    2    70          
2013-12-31 12   25.0   118.4     982    2    55          
2013-12-31 12   25.0   118.4     982    2    55          
2013-12-31 18   26.4   120.1     993    1    40          
2014-01-01 00   27.8   122.0     993    1    40          
2014-01-01 06   29.4   124.3     996         35          
2014-01-01 12   30.8   126.7    1000         30          
Winds are 1-min average.

Tropical cyclone tracks developed by Michael Bath using data from the Joint Typhoon Warning Centre Best Tracks and Google Maps.


[Australian Severe Weather index] [Copyright Notice] [Email Contacts] [Search This Site] [Privacy Policy]
Document: tropical_cyclone_christine.htm Updated: 28 June 2017